Time;durP1;ratioP1;P1;durP2;ratioP2;P2;SDS_P1;SDS_P2;PMS_P1;PMS_P2;Temp;Humidity;BMP_temperature;BMP_pressure;BME280_temperature;BME280_humidity;BME280_pressure;Samples;Min_cycle;Max_cycle;Signal;HPM_P1;HPM_P2
2022/06/05 00:02:00;;;;;;;;;6.00;6.00;;;;;19.67;59.75;100920.53;4942803;28;45406;-55
2022/06/05 00:04:45;;;;;;;;;6.50;6.25;;;;;19.68;60.17;100920.44;4943040;28;45312;-56
2022/06/05 00:08:10;;;;;;;;;8.25;8.25;;;;;19.68;60.19;100912.44;4942846;28;45345;-56
2022/06/05 00:10:48;;;;;;;;;6.00;6.00;;;;;19.67;59.80;100913.38;4898781;28;48359;-56
2022/06/05 00:13:25;;;;;;;;;6.75;6.75;;;;;19.68;60.25;100911.59;4898408;29;45370;-54
2022/06/05 00:15:51;;;;;;;;;5.00;5.00;;;;;19.67;60.41;100908.03;4933088;28;45339;-57
2022/06/05 00:18:16;;;;;;;;;7.50;7.50;;;;;19.68;60.37;100900.94;4942513;28;45241;-56
2022/06/05 00:20:43;;;;;;;;;7.00;6.50;;;;;19.66;60.03;100893.00;4942673;28;45431;-56
2022/06/05 00:23:09;;;;;;;;;7.00;4.75;;;;;19.66;59.99;100885.03;4942710;28;45350;-55
2022/06/05 00:26:12;;;;;;;;;6.00;4.75;;;;;19.65;60.06;100884.13;4942675;28;45386;-56
2022/06/05 00:29:01;;;;;;;;;11.75;8.50;;;;;19.65;60.03;100886.81;4909299;28;45311;-55
2022/06/05 00:31:46;;;;;;;;;6.25;6.25;;;;;19.63;60.04;100891.38;4942382;28;46372;-55
2022/06/05 00:34:12;;;;;;;;;8.75;8.75;;;;;19.61;60.15;100901.22;4942249;28;45533;-55
2022/06/05 00:36:45;;;;;;;;;6.25;6.00;;;;;19.61;60.02;100897.72;4942831;28;45201;-56
2022/06/05 00:39:22;;;;;;;;;8.75;8.75;;;;;19.61;60.56;100895.91;4942564;28;45324;-56
2022/06/05 00:42:01;;;;;;;;;9.25;9.25;;;;;19.61;60.33;100884.38;4942111;28;46686;-55
2022/06/05 00:44:36;;;;;;;;;7.75;7.75;;;;;19.60;59.94;100888.84;4940795;28;45316;-55
2022/06/05 00:47:02;;;;;;;;;8.25;7.50;;;;;19.60;60.20;100891.50;4942290;28;45248;-56
2022/06/05 00:49:48;;;;;;;;;9.50;7.50;;;;;19.59;60.43;100891.59;4942279;28;45308;-55
2022/06/05 00:52:16;;;;;;;;;11.00;9.00;;;;;19.58;60.47;100897.84;4942049;28;46306;-55
2022/06/05 00:54:42;;;;;;;;;9.00;9.00;;;;;19.57;60.18;100886.34;4942456;28;45225;-55
2022/06/05 00:57:10;;;;;;;;;11.25;9.00;;;;;19.55;60.36;100880.22;4942027;28;45243;-55
2022/06/05 00:59:38;;;;;;;;;14.75;11.50;;;;;19.57;60.22;100878.34;4942092;28;45182;-55
2022/06/05 01:02:04;;;;;;;;;10.00;10.00;;;;;19.55;60.13;100877.53;4941823;28;45481;-56
2022/06/05 01:04:32;;;;;;;;;10.00;8.50;;;;;19.57;60.55;100882.78;4942040;28;45259;-55
2022/06/05 01:06:57;;;;;;;;;11.75;10.00;;;;;19.53;60.68;100886.56;4942010;28;45230;-55
2022/06/05 01:09:22;;;;;;;;;14.00;11.75;;;;;19.51;59.96;100894.63;4942279;28;45209;-56
2022/06/05 01:12:00;;;;;;;;;13.75;11.25;;;;;19.50;60.25;100895.56;4941927;28;46133;-55
2022/06/05 01:14:37;;;;;;;;;12.75;11.00;;;;;19.47;60.12;100885.94;4941584;28;46880;-55
2022/06/05 01:17:22;;;;;;;;;12.00;11.75;;;;;19.42;59.81;100868.41;4941958;28;45322;-55
2022/06/05 01:19:55;;;;;;;;;13.50;11.50;;;;;19.48;60.17;100865.47;4941858;28;45405;-55
2022/06/05 01:22:58;;;;;;;;;12.00;12.00;;;;;19.48;60.30;100845.03;4940896;28;46286;-55
2022/06/05 01:25:53;;;;;;;;;11.75;10.75;;;;;19.48;60.02;100830.81;4941816;28;45248;-55
2022/06/05 01:28:24;;;;;;;;;11.75;10.00;;;;;19.49;60.11;100825.41;4942076;28;45168;-54
2022/06/05 01:31:09;;;;;;;;;11.00;11.00;;;;;19.44;60.08;100807.94;4941438;28;45456;-53
2022/06/05 01:33:41;;;;;;;;;15.25;14.00;;;;;19.52;60.20;100818.19;4934335;28;45686;-55
2022/06/05 01:36:31;;;;;;;;;12.00;10.00;;;;;19.54;60.28;100811.84;4941530;28;45514;-54
2022/06/05 01:39:06;;;;;;;;;11.00;9.00;;;;;19.53;60.14;100801.28;4941678;28;45294;-53
2022/06/05 01:41:39;;;;;;;;;14.75;11.00;;;;;19.56;60.27;100801.09;4941565;28;45541;-54
2022/06/05 01:44:09;;;;;;;;;12.25;12.25;;;;;19.55;60.68;100799.41;4939928;28;48219;-55
2022/06/05 01:46:38;;;;;;;;;12.75;10.00;;;;;19.50;60.46;100786.31;4941478;28;45184;-55
2022/06/05 01:49:16;;;;;;;;;11.50;11.50;;;;;19.51;59.91;100780.03;4941355;28;45332;-54
2022/06/05 01:52:04;;;;;;;;;15.25;15.00;;;;;19.52;60.39;100791.56;4941258;28;45479;-53
2022/06/05 01:54:45;;;;;;;;;12.75;12.00;;;;;19.49;60.24;100780.09;4941141;28;45332;-54
2022/06/05 01:57:13;;;;;;;;;12.00;12.00;;;;;19.48;60.24;100774.84;4939940;28;45335;-55
2022/06/05 01:59:47;;;;;;;;;17.25;16.00;;;;;19.52;60.50;100775.56;4939868;28;45408;-54
2022/06/05 02:02:21;;;;;;;;;11.50;11.25;;;;;19.52;60.72;100764.91;4941238;28;45220;-55
2022/06/05 02:04:52;;;;;;;;;14.75;14.75;;;;;19.52;60.11;100762.25;4940940;28;46743;-55
2022/06/05 02:07:26;;;;;;;;;12.00;12.00;;;;;19.54;60.10;100753.22;4941358;28;45349;-55
2022/06/05 02:10:01;;;;;;;;;15.00;12.00;;;;;19.54;60.47;100747.03;4941206;28;45371;-55
2022/06/05 02:12:26;;;;;;;;;13.75;10.50;;;;;19.54;60.36;100739.91;4941354;28;45223;-54
2022/06/05 02:14:52;;;;;;;;;11.50;10.25;;;;;19.55;60.67;100743.44;4940606;28;45460;-53
2022/06/05 02:17:18;;;;;;;;;12.75;12.75;;;;;19.55;60.26;100746.09;4941224;28;45398;-55
2022/06/05 02:19:44;;;;;;;;;8.50;6.50;;;;;19.56;60.36;100739.81;4941248;28;45516;-55
2022/06/05 02:22:26;;;;;;;;;14.50;14.50;;;;;19.56;60.73;100748.69;4941080;28;45309;-55
2022/06/05 02:24:53;;;;;;;;;15.50;13.25;;;;;19.53;60.05;100743.50;4940757;28;45402;-55
2022/06/05 02:27:25;;;;;;;;;17.75;14.75;;;;;19.52;60.27;100744.47;4939552;28;45321;-53
2022/06/05 02:29:51;;;;;;;;;17.75;15.00;;;;;19.49;60.30;100748.13;4940937;28;45163;-55
2022/06/05 02:32:37;;;;;;;;;18.25;18.00;;;;;19.47;60.02;100747.34;4940651;28;45383;-54
2022/06/05 02:35:22;;;;;;;;;14.75;14.50;;;;;19.45;60.52;100743.91;4932946;28;45390;-54
2022/06/05 02:38:25;;;;;;;;;17.00;17.00;;;;;19.42;60.20;100746.72;4944144;28;45348;-54
2022/06/05 02:41:09;;;;;;;;;18.00;16.50;;;;;19.38;60.44;100737.16;4943889;28;45401;-54
2022/06/05 02:46:47;;;;;;;;;13.75;13.25;;;;;19.33;60.34;100728.53;4943976;28;45303;-55
2022/06/05 02:49:24;;;;;;;;;16.25;14.50;;;;;19.33;60.45;100717.88;4943902;28;45304;-56
2022/06/05 02:51:53;;;;;;;;;15.25;14.50;;;;;19.32;60.06;100716.19;4944029;28;45300;-55
2022/06/05 02:54:21;;;;;;;;;19.50;16.25;;;;;19.32;60.67;100710.84;4942807;28;45518;-56
2022/06/05 02:56:47;;;;;;;;;17.75;14.50;;;;;19.30;60.50;100702.91;4943824;28;45539;-56
2022/06/05 02:59:12;;;;;;;;;15.00;13.50;;;;;19.31;60.73;100709.13;4943774;28;45226;-55
2022/06/05 03:04:21;;;;;;;;;12.75;12.75;;;;;19.31;59.94;100704.63;4942967;28;45289;-55
2022/06/05 03:06:47;;;;;;;;;14.50;14.50;;;;;19.31;60.40;100703.78;4942230;28;46558;-54
2022/06/05 03:09:12;;;;;;;;;15.50;15.00;;;;;19.28;60.81;100701.28;4943955;28;45400;-55
2022/06/05 03:11:38;;;;;;;;;17.00;15.75;;;;;19.28;60.58;100702.16;4943753;28;45426;-55
2022/06/05 03:14:04;;;;;;;;;15.50;14.50;;;;;19.27;60.47;100704.88;4943447;28;45228;-55
2022/06/05 03:16:29;;;;;;;;;16.00;16.00;;;;;19.28;60.28;100706.59;4943431;28;45551;-54
2022/06/05 03:18:55;;;;;;;;;14.00;12.75;;;;;19.27;60.30;100710.19;4943810;28;45132;-55
2022/06/05 03:21:20;;;;;;;;;13.25;13.25;;;;;19.27;60.28;100712.84;4943557;28;45224;-54
2022/06/05 03:23:46;;;;;;;;;17.00;14.25;;;;;19.27;60.57;100710.19;4943760;28;45213;-55
2022/06/05 03:26:12;;;;;;;;;12.00;10.50;;;;;19.27;60.60;100718.19;4943361;28;46137;-55
2022/06/05 03:28:38;;;;;;;;;13.00;11.25;;;;;19.27;60.68;100719.06;4943419;28;45335;-53
2022/06/05 03:31:06;;;;;;;;;10.75;10.00;;;;;19.25;60.53;100723.59;4943423;28;45390;-55
2022/06/05 03:33:31;;;;;;;;;11.75;10.50;;;;;19.25;60.24;100725.41;4941989;28;45410;-55
2022/06/05 03:35:56;;;;;;;;;11.75;9.50;;;;;19.23;60.18;100730.81;4943258;28;46495;-55
2022/06/05 03:38:21;;;;;;;;;9.75;8.25;;;;;19.21;60.23;100750.50;4943462;28;45297;-55
2022/06/05 03:40:47;;;;;;;;;8.75;8.00;;;;;19.17;60.37;100747.97;4943311;28;45219;-54
2022/06/05 03:43:14;;;;;;;;;8.00;8.00;;;;;19.16;60.56;100756.88;4943516;28;45233;-55
2022/06/05 03:45:40;;;;;;;;;7.00;7.00;;;;;19.12;60.09;100755.31;4941001;28;47448;-54
2022/06/05 03:48:06;;;;;;;;;7.50;7.50;;;;;19.11;60.11;100756.25;4943415;28;45268;-55
2022/06/05 03:50:32;;;;;;;;;5.50;5.50;;;;;19.08;60.38;100753.75;4943306;28;45411;-54
2022/06/05 03:52:58;;;;;;;;;5.00;5.00;;;;;19.06;60.29;100768.94;4941881;28;45329;-53
2022/06/05 03:55:24;;;;;;;;;8.00;6.00;;;;;19.05;59.99;100769.88;4943048;28;46153;-54
2022/06/05 03:57:50;;;;;;;;;8.00;7.00;;;;;19.04;60.00;100781.47;4943127;28;45419;-56
2022/06/05 04:00:19;;;;;;;;;7.25;7.25;;;;;19.03;60.30;100790.41;4942957;28;45439;-55
2022/06/05 04:02:44;;;;;;;;;7.75;5.25;;;;;19.03;60.29;100792.19;4942879;28;45480;-55
2022/06/05 04:05:14;;;;;;;;;6.00;6.00;;;;;19.03;59.90;100793.06;4941631;28;45229;-55
2022/06/05 04:07:40;;;;;;;;;5.25;4.25;;;;;19.03;60.36;100792.19;4943004;28;45324;-54
2022/06/05 04:10:07;;;;;;;;;5.50;4.00;;;;;19.04;59.81;100797.44;4942785;28;45342;-54
2022/06/05 04:12:32;;;;;;;;;6.00;6.00;;;;;19.05;60.10;100799.16;4941447;28;45224;-55
2022/06/05 04:15:00;;;;;;;;;5.00;4.00;;;;;19.05;59.58;100798.31;4942384;28;46297;-55
2022/06/05 04:17:25;;;;;;;;;7.00;7.00;;;;;19.05;59.97;100798.31;4942763;28;45390;-54
2022/06/05 04:19:52;;;;;;;;;9.25;9.25;;;;;19.05;59.71;100804.50;4942809;28;45272;-55
2022/06/05 04:22:17;;;;;;;;;6.25;6.25;;;;;18.97;59.98;100794.22;4942752;28;45397;-55
2022/06/05 04:24:42;;;;;;;;;8.75;7.75;;;;;19.07;59.89;100823.94;4941310;28;46414;-55
2022/06/05 04:27:08;;;;;;;;;7.50;7.50;;;;;19.09;60.24;100832.69;4942598;28;45829;-55
2022/06/05 04:29:33;;;;;;;;;6.75;6.00;;;;;19.12;59.82;100845.03;4941415;28;45367;-55
2022/06/05 04:31:59;;;;;;;;;8.00;8.00;;;;;19.13;60.21;100836.06;4942438;28;45473;-56
2022/06/05 04:34:24;;;;;;;;;8.00;8.00;;;;;19.14;60.01;100838.69;4942422;28;46250;-54
2022/06/05 04:36:49;;;;;;;;;9.25;9.25;;;;;19.14;59.93;100840.47;4942427;28;45413;-55
2022/06/05 04:39:15;;;;;;;;;9.50;7.00;;;;;19.16;60.19;100842.13;4942723;28;45358;-55
2022/06/05 04:41:41;;;;;;;;;8.50;8.50;;;;;19.18;60.14;100852.69;4942301;28;45268;-56
2022/06/05 04:44:10;;;;;;;;;10.75;8.25;;;;;19.20;59.93;100857.97;4942056;28;45248;-54
2022/06/05 04:46:35;;;;;;;;;11.00;8.50;;;;;19.18;59.72;100847.38;4942292;28;45248;-55
2022/06/05 04:49:01;;;;;;;;;8.50;8.00;;;;;19.21;60.23;100849.91;4942155;28;45185;-54
2022/06/05 04:51:26;;;;;;;;;11.00;11.00;;;;;19.23;60.14;100856.03;4942262;28;45248;-55
2022/06/05 04:53:54;;;;;;;;;9.25;9.00;;;;;19.24;60.08;100862.19;4942074;28;46020;-54
2022/06/05 04:56:23;;;;;;;;;14.00;11.00;;;;;19.26;60.52;100860.34;4941072;28;45374;-55
2022/06/05 04:58:49;;;;;;;;;10.50;9.25;;;;;19.27;60.11;100864.69;4940830;28;45305;-55
2022/06/05 05:01:19;;;;;;;;;9.50;9.50;;;;;19.28;59.89;100861.09;4942032;28;45306;-56
2022/06/05 05:03:44;;;;;;;;;14.00;11.75;;;;;19.30;60.46;100867.22;4941955;28;47475;-55
2022/06/05 05:06:10;;;;;;;;;8.00;8.00;;;;;19.31;60.17;100869.81;4942087;28;45399;-55
2022/06/05 05:08:36;;;;;;;;;11.00;10.25;;;;;19.33;59.83;100875.06;4942058;28;45311;-54
2022/06/05 05:11:02;;;;;;;;;12.00;10.00;;;;;19.35;60.22;100875.00;4941887;28;45387;-54
2022/06/05 05:13:27;;;;;;;;;16.25;14.25;;;;;19.37;59.92;100874.00;4941450;28;45302;-55
2022/06/05 05:15:55;;;;;;;;;8.75;8.75;;;;;19.38;60.39;100872.19;4941897;28;45243;-55
2022/06/05 05:18:21;;;;;;;;;13.25;13.25;;;;;19.39;60.22;100857.94;4941967;28;45323;-55
2022/06/05 05:20:46;;;;;;;;;12.00;11.75;;;;;19.41;60.76;100864.91;4940400;28;45434;-54
2022/06/05 05:23:12;;;;;;;;;9.25;9.25;;;;;19.43;60.04;100867.50;4941765;28;45521;-55
2022/06/05 05:25:37;;;;;;;;;11.50;9.25;;;;;19.45;60.25;100862.97;4940573;28;45408;-54
2022/06/05 05:28:05;;;;;;;;;8.00;8.00;;;;;19.46;60.51;100860.22;4941879;28;45328;-56
2022/06/05 05:30:31;;;;;;;;;11.75;9.25;;;;;19.47;60.18;100847.72;4941516;28;45371;-54
2022/06/05 05:32:56;;;;;;;;;11.00;9.25;;;;;19.52;60.42;100850.19;4941246;28;46204;-55
2022/06/05 05:35:22;;;;;;;;;8.25;7.25;;;;;19.49;60.34;100854.72;4941752;28;45290;-53
2022/06/05 05:37:47;;;;;;;;;8.50;8.50;;;;;19.56;60.33;100862.41;4941795;28;45244;-56
2022/06/05 05:42:57;;;;;;;;;8.75;8.25;;;;;19.59;60.07;100862.28;4941667;28;45348;-55
2022/06/05 05:45:22;;;;;;;;;7.75;7.00;;;;;19.62;60.06;100868.31;4941266;28;45295;-54
2022/06/05 05:47:48;;;;;;;;;8.50;7.25;;;;;19.64;60.60;100861.06;4941753;28;45271;-54
2022/06/05 05:50:17;;;;;;;;;9.00;7.50;;;;;19.69;60.23;100868.84;4941175;28;46209;-53
2022/06/05 05:52:44;;;;;;;;;8.00;8.00;;;;;19.70;60.42;100862.59;4941498;28;45516;-54
2022/06/05 05:55:15;;;;;;;;;11.50;9.50;;;;;19.73;60.50;100857.09;4941303;28;45335;-55
2022/06/05 05:57:41;;;;;;;;;8.50;8.50;;;;;19.77;60.04;100858.69;4941639;28;45434;-55
2022/06/05 06:00:09;;;;;;;;;9.25;7.75;;;;;19.76;60.05;100850.72;4939732;28;45474;-55
2022/06/05 06:02:36;;;;;;;;;7.25;7.25;;;;;19.82;60.45;100853.09;4941199;28;46297;-55
2022/06/05 06:05:03;;;;;;;;;9.50;7.50;;;;;19.85;59.98;100849.44;4941179;28;45405;-55
2022/06/05 06:07:28;;;;;;;;;8.50;8.50;;;;;19.87;60.41;100844.91;4941454;28;45226;-55
2022/06/05 06:09:54;;;;;;;;;7.25;6.25;;;;;19.89;59.80;100849.22;4943422;28;45484;-54
2022/06/05 06:12:20;;;;;;;;;9.25;7.25;;;;;19.86;60.20;100840.50;4944713;28;45314;-56
2022/06/05 06:14:45;;;;;;;;;7.25;7.25;;;;;19.94;59.89;100856.97;4944247;28;45236;-54
2022/06/05 06:17:10;;;;;;;;;7.50;7.50;;;;;19.95;60.19;100856.91;4944667;28;45362;-55
2022/06/05 06:19:36;;;;;;;;;9.25;9.25;;;;;19.98;59.91;100858.53;4943365;28;45394;-55
2022/06/05 06:22:02;;;;;;;;;10.00;8.00;;;;;20.03;60.28;100855.63;4944600;28;46063;-54
2022/06/05 06:24:27;;;;;;;;;8.00;8.00;;;;;20.03;59.78;100856.50;4944405;28;45341;-54
2022/06/05 06:26:53;;;;;;;;;8.25;7.00;;;;;20.05;59.95;100854.63;4944668;28;45309;-55
2022/06/05 06:29:18;;;;;;;;;7.00;7.00;;;;;20.07;60.29;100851.88;4944146;28;45509;-53
2022/06/05 06:31:44;;;;;;;;;7.00;7.00;;;;;20.08;59.65;100851.78;4944305;28;46318;-55
2022/06/05 06:34:09;;;;;;;;;11.50;10.25;;;;;20.09;59.64;100858.00;4942820;28;45420;-55
2022/06/05 06:36:35;;;;;;;;;9.50;9.50;;;;;20.07;60.18;100850.03;4944675;28;45335;-54
2022/06/05 06:39:01;;;;;;;;;10.75;10.25;;;;;20.10;60.12;100852.56;4944193;28;45505;-53
2022/06/05 06:41:27;;;;;;;;;11.00;10.00;;;;;20.10;59.47;100847.22;4943900;28;45328;-53
2022/06/05 06:43:52;;;;;;;;;6.75;6.75;;;;;20.11;59.70;100848.97;4943910;28;45299;-52
2022/06/05 06:46:19;;;;;;;;;8.25;8.25;;;;;20.12;59.52;100844.47;4944388;28;45248;-54
2022/06/05 06:48:45;;;;;;;;;12.50;8.50;;;;;20.12;60.11;100842.69;4943994;28;45400;-53
2022/06/05 06:51:12;;;;;;;;;7.50;7.50;;;;;20.12;60.07;100845.34;4942643;28;46501;-55
2022/06/05 06:53:39;;;;;;;;;8.00;7.50;;;;;20.12;59.37;100833.81;4943874;28;45477;-55
2022/06/05 06:56:17;;;;;;;;;12.00;10.50;;;;;20.13;60.12;100831.06;4944183;28;45343;-54
2022/06/05 06:58:44;;;;;;;;;8.50;7.00;;;;;20.14;59.46;100824.78;4943709;28;45605;-55
2022/06/05 07:01:10;;;;;;;;;7.75;7.75;;;;;20.14;59.91;100816.78;4943824;28;45258;-53
2022/06/05 07:03:36;;;;;;;;;12.50;11.50;;;;;20.15;60.07;100820.31;4943829;28;45303;-55
2022/06/05 07:06:04;;;;;;;;;10.75;10.00;;;;;20.15;59.48;100817.66;4943904;28;45307;-52
2022/06/05 07:08:29;;;;;;;;;8.00;8.00;;;;;20.16;59.37;100822.03;4943887;28;45379;-55
2022/06/05 07:10:55;;;;;;;;;8.00;8.00;;;;;20.17;59.68;100820.25;4943616;28;45986;-54
2022/06/05 07:13:20;;;;;;;;;11.75;9.00;;;;;20.17;59.30;100814.91;4943281;28;45332;-54
2022/06/05 07:15:45;;;;;;;;;11.00;10.25;;;;;20.17;59.21;100822.91;4943709;28;45304;-55
2022/06/05 07:18:11;;;;;;;;;7.75;6.75;;;;;20.16;59.86;100818.50;4943701;28;45327;-55
2022/06/05 07:20:39;;;;;;;;;11.50;9.25;;;;;20.19;59.80;100815.66;4942655;28;45400;-54
2022/06/05 07:23:06;;;;;;;;;8.75;6.25;;;;;20.19;59.07;100802.31;4943541;28;45233;-54
2022/06/05 07:25:32;;;;;;;;;8.50;7.00;;;;;20.23;59.32;100809.25;4943712;28;45290;-54
2022/06/05 07:27:58;;;;;;;;;9.00;9.00;;;;;20.23;59.24;100812.75;4943323;28;45604;-55
2022/06/05 07:30:24;;;;;;;;;10.75;10.50;;;;;20.25;59.30;100807.34;4941676;28;47335;-53
2022/06/05 07:32:51;;;;;;;;;7.75;7.75;;;;;20.25;59.34;100797.53;4943085;28;45343;-53
2022/06/05 07:35:17;;;;;;;;;7.50;7.50;;;;;20.27;59.98;100800.13;4943572;28;45352;-55
2022/06/05 07:37:42;;;;;;;;;8.25;7.75;;;;;20.28;59.19;100800.03;4943309;28;45420;-53
2022/06/05 07:40:09;;;;;;;;;8.50;7.75;;;;;20.34;59.74;100809.53;4943057;28;46096;-54
2022/06/05 07:42:36;;;;;;;;;8.00;8.00;;;;;20.37;59.68;100816.50;4943144;28;45237;-55
2022/06/05 07:45:03;;;;;;;;;10.25;10.25;;;;;20.39;59.28;100818.13;4943373;28;45514;-54
2022/06/05 07:47:28;;;;;;;;;10.50;9.25;;;;;20.43;59.50;100814.34;4942967;28;45450;-53
2022/06/05 07:49:53;;;;;;;;;9.00;8.25;;;;;20.45;59.03;100815.13;4943032;28;46071;-54
2022/06/05 07:55:03;;;;;;;;;9.00;9.00;;;;;20.53;59.64;100809.38;4943433;28;45367;-54
2022/06/05 07:57:28;;;;;;;;;11.00;9.50;;;;;20.55;58.94;100804.81;4942991;28;45556;-52
2022/06/05 07:59:54;;;;;;;;;9.25;8.00;;;;;20.61;59.25;100823.16;4942859;28;45383;-54
2022/06/05 08:02:24;;;;;;;;;8.75;8.50;;;;;20.65;59.19;100815.81;4942881;28;45300;-54
2022/06/05 08:04:51;;;;;;;;;8.00;8.00;;;;;20.67;59.23;100813.94;4943055;28;45172;-53
2022/06/05 08:07:22;;;;;;;;;9.00;8.00;;;;;20.75;59.16;100818.88;4943152;28;45310;-54
2022/06/05 08:09:48;;;;;;;;;9.75;8.50;;;;;20.77;59.93;100809.84;4942717;28;45224;-53
2022/06/05 08:12:16;;;;;;;;;9.50;8.75;;;;;20.86;59.43;100808.47;4943008;28;45387;-53
2022/06/05 08:14:43;;;;;;;;;8.00;8.00;;;;;20.93;59.17;100814.34;4942510;28;45224;-54
2022/06/05 08:17:12;;;;;;;;;10.25;9.00;;;;;21.02;59.34;100819.16;4942597;28;45462;-55
2022/06/05 08:19:40;;;;;;;;;9.00;8.75;;;;;21.05;59.62;100818.97;4942561;28;45673;-53
2022/06/05 08:22:06;;;;;;;;;9.00;9.00;;;;;21.09;59.14;100820.53;4942534;28;45338;-54
2022/06/05 08:24:32;;;;;;;;;9.75;8.00;;;;;21.14;59.44;100827.41;4942695;28;45346;-54
2022/06/05 08:26:57;;;;;;;;;9.00;6.75;;;;;21.18;59.07;100821.81;4942671;28;45431;-53
2022/06/05 08:29:22;;;;;;;;;8.25;8.25;;;;;21.20;59.33;100819.06;4942381;28;45324;-52
2022/06/05 08:31:48;;;;;;;;;7.75;6.75;;;;;21.21;59.23;100826.13;4942287;28;45275;-54
2022/06/05 08:34:14;;;;;;;;;6.75;6.75;;;;;21.21;59.17;100832.31;4942588;28;45323;-54
2022/06/05 08:36:40;;;;;;;;;7.00;7.00;;;;;21.19;58.80;100831.53;4941332;28;45560;-54
2022/06/05 08:42:00;;;;;;;;;9.50;9.50;;;;;21.22;58.92;100841.19;4942350;28;45374;-54
2022/06/05 08:44:46;;;;;;;;;7.75;7.50;;;;;21.21;59.33;100843.00;4942185;28;45386;-51
2022/06/05 08:47:22;;;;;;;;;8.00;8.00;;;;;21.16;58.67;100828.19;4942057;28;45299;-54
2022/06/05 08:50:19;;;;;;;;;11.50;9.00;;;;;21.20;59.31;100837.75;4942137;28;45520;-50
2022/06/05 08:52:55;;;;;;;;;3.50;1.00;;;;;21.20;58.87;100832.41;4917016;28;45420;-53
2022/06/05 08:55:43;;;;;;;;;6.75;6.75;;;;;21.21;58.62;100840.31;4942229;28;45331;-54
2022/06/05 08:58:26;;;;;;;;;7.00;7.00;;;;;21.23;58.77;100845.56;4941948;28;45262;-54
2022/06/05 09:01:17;;;;;;;;;9.00;8.00;;;;;21.25;59.06;100851.72;4940799;28;48179;-52
2022/06/05 09:03:58;;;;;;;;;5.00;5.00;;;;;21.23;59.15;100848.25;4921380;28;45480;-54
2022/06/05 09:06:38;;;;;;;;;7.25;7.25;;;;;21.21;58.38;100850.16;4942171;28;45286;-55
2022/06/05 09:09:10;;;;;;;;;8.00;8.00;;;;;21.17;58.76;100852.16;4942207;28;45262;-54
2022/06/05 09:11:45;;;;;;;;;8.25;8.25;;;;;21.13;58.66;100857.75;4941859;28;45268;-55
2022/06/05 09:14:23;;;;;;;;;8.00;8.00;;;;;21.13;58.56;100852.41;4941549;28;45410;-54
2022/06/05 09:16:54;;;;;;;;;8.00;8.00;;;;;21.11;58.77;100847.16;4941820;28;45231;-52
2022/06/05 09:19:26;;;;;;;;;7.00;6.75;;;;;21.13;58.44;100869.31;4941907;28;45598;-53
2022/06/05 09:22:09;;;;;;;;;8.25;8.00;;;;;21.11;58.67;100877.38;4941904;28;45292;-54
2022/06/05 09:24:55;;;;;;;;;9.50;7.00;;;;;21.10;58.55;100891.69;4940330;28;45501;-53
2022/06/05 09:28:03;;;;;;;;;9.00;9.00;;;;;21.05;59.23;100899.09;4941838;28;45236;-54
2022/06/05 09:30:46;;;;;;;;;8.75;8.75;;;;;21.00;59.46;100908.34;4909706;28;45331;-55
2022/06/05 09:33:30;;;;;;;;;7.25;5.50;;;;;20.95;59.12;100919.25;4941489;28;45528;-54
2022/06/05 09:36:11;;;;;;;;;11.25;10.00;;;;;20.91;59.29;100915.06;4954541;28;45184;-54
2022/06/05 09:38:41;;;;;;;;;7.50;7.50;;;;;20.90;59.09;100918.66;4941704;28;45272;-54
2022/06/05 09:41:47;;;;;;;;;14.00;11.00;;;;;20.87;59.12;100905.50;4941261;28;45248;-53
2022/06/05 09:44:58;;;;;;;;;8.00;8.00;;;;;20.86;59.27;100907.28;4940617;28;46326;-53
2022/06/05 09:47:30;;;;;;;;;10.00;10.00;;;;;20.87;59.61;100903.66;4941447;28;45275;-52
2022/06/05 09:50:01;;;;;;;;;10.50;10.00;;;;;20.85;59.70;100910.88;4941531;28;45358;-53
2022/06/05 09:52:32;;;;;;;;;8.00;8.00;;;;;20.88;59.66;100912.53;4941289;28;45263;-54
2022/06/05 09:55:08;;;;;;;;;10.25;9.00;;;;;20.90;59.12;100911.50;4941020;28;46440;-54
2022/06/05 10:00:36;;;;;;;;;11.00;10.75;;;;;20.90;59.40;100897.28;4941160;28;45382;-54
2022/06/05 10:03:05;;;;;;;;;11.75;11.00;;;;;20.93;58.91;100899.81;4939972;28;45368;-54
2022/06/05 10:05:35;;;;;;;;;11.00;11.00;;;;;20.93;58.94;100903.34;4939808;28;47754;-54
2022/06/05 10:08:16;;;;;;;;;13.00;12.00;;;;;20.97;58.93;100908.50;4941148;28;45372;-55
2022/06/05 10:10:42;;;;;;;;;9.50;9.25;;;;;20.98;58.91;100919.13;4941337;28;45249;-53
2022/06/05 10:13:20;;;;;;;;;10.25;10.25;;;;;20.99;59.34;100920.81;4940731;28;45412;-55
2022/06/05 10:16:10;;;;;;;;;8.00;8.00;;;;;20.96;59.70;100923.66;4940901;28;45449;-53
2022/06/05 10:18:58;;;;;;;;;11.50;10.50;;;;;20.94;59.37;100922.88;4940928;28;45328;-54
2022/06/05 10:21:34;;;;;;;;;11.00;10.00;;;;;21.00;59.30;100922.53;4920449;28;45352;-54
2022/06/05 10:24:02;;;;;;;;;12.25;10.25;;;;;21.01;58.98;100920.75;4932913;28;45316;-53
2022/06/05 10:26:30;;;;;;;;;12.25;10.25;;;;;20.99;58.92;100923.47;4940697;28;46312;-51
2022/06/05 10:29:26;;;;;;;;;11.50;11.50;;;;;21.05;59.15;100920.47;4940699;28;45319;-55
2022/06/05 10:32:02;;;;;;;;;11.50;10.00;;;;;21.05;58.93;100927.66;4940855;28;45347;-54
2022/06/05 10:34:39;;;;;;;;;10.75;10.75;;;;;21.09;58.67;100931.84;4940590;28;45552;-53
2022/06/05 10:37:20;;;;;;;;;10.75;10.75;;;;;21.10;58.95;100923.75;4940766;28;46272;-54
2022/06/05 10:39:59;;;;;;;;;10.75;10.75;;;;;21.14;58.98;100926.28;4940750;28;45183;-52
2022/06/05 10:42:47;;;;;;;;;9.00;8.50;;;;;21.13;59.01;100916.53;4939299;28;45487;-52
2022/06/05 10:45:29;;;;;;;;;12.75;12.75;;;;;21.17;58.34;100910.94;4940553;28;45474;-54
2022/06/05 10:48:01;;;;;;;;;13.50;11.00;;;;;21.26;58.25;100918.41;4940644;28;47378;-54
2022/06/05 10:50:35;;;;;;;;;11.50;11.50;;;;;21.28;58.88;100918.31;4940531;28;45389;-54
2022/06/05 10:53:09;;;;;;;;;14.75;14.75;;;;;21.34;58.32;100930.50;4940787;28;45291;-53
2022/06/05 10:55:48;;;;;;;;;14.00;14.00;;;;;21.39;58.22;100934.63;4940826;28;45229;-53
2022/06/05 10:58:24;;;;;;;;;12.75;11.25;;;;;21.38;58.15;100946.28;4943648;28;46296;-53
2022/06/05 11:00:50;;;;;;;;;11.25;11.25;;;;;21.42;58.50;100946.94;4943714;28;45538;-52
2022/06/05 11:03:33;;;;;;;;;13.50;12.00;;;;;21.35;58.02;100940.25;4943899;28;45403;-55
2022/06/05 11:06:36;;;;;;;;;11.25;10.25;;;;;21.30;58.02;100950.34;4943901;28;45370;-54
2022/06/05 11:09:41;;;;;;;;;14.25;12.50;;;;;21.29;58.31;100946.78;4943555;28;45365;-52
2022/06/05 11:15:25;;;;;;;;;19.00;19.00;;;;;21.25;57.73;100953.25;4943351;28;45304;-53
2022/06/05 11:17:53;;;;;;;;;14.50;13.75;;;;;21.25;58.06;100946.09;4943298;28;45414;-53
2022/06/05 11:20:22;;;;;;;;;13.50;12.75;;;;;21.20;57.90;100942.81;4942138;28;47187;-53
2022/06/05 11:23:03;;;;;;;;;15.00;14.00;;;;;21.26;57.69;100949.63;4943381;28;45229;-52
2022/06/05 11:25:37;;;;;;;;;17.00;17.00;;;;;21.26;58.13;100952.31;4943721;28;45220;-52
2022/06/05 11:28:18;;;;;;;;;16.00;14.25;;;;;21.28;57.67;100958.41;4943108;28;45283;-51
2022/06/05 11:30:53;;;;;;;;;14.50;13.25;;;;;21.27;57.68;100959.38;4942931;28;45722;-53
2022/06/05 11:33:26;;;;;;;;;13.50;13.50;;;;;21.25;57.61;100963.94;4943089;28;45449;-52
2022/06/05 11:36:13;;;;;;;;;15.00;13.50;;;;;21.24;57.17;100963.09;4943410;28;45305;-51
2022/06/05 11:39:04;;;;;;;;;18.00;17.50;;;;;21.22;57.23;100961.44;4943376;28;45592;-52
2022/06/05 11:41:46;;;;;;;;;15.50;15.50;;;;;21.20;57.51;100966.88;4942598;28;46134;-52
2022/06/05 11:44:29;;;;;;;;;17.25;17.00;;;;;21.18;57.46;100971.44;4942919;28;45395;-54
2022/06/05 11:46:57;;;;;;;;;13.75;13.75;;;;;21.16;57.11;100972.47;4943219;28;45315;-54
2022/06/05 11:49:39;;;;;;;;;17.75;16.75;;;;;21.13;57.43;100980.66;4941732;28;45795;-53
2022/06/05 11:52:28;;;;;;;;;13.25;13.25;;;;;21.07;57.18;100992.53;4941477;28;46780;-51
2022/06/05 11:54:59;;;;;;;;;15.25;14.25;;;;;21.04;57.50;100988.25;4941736;28;45286;-53
2022/06/05 11:57:36;;;;;;;;;17.25;17.25;;;;;21.01;57.23;100993.72;4941843;28;45315;-50
2022/06/05 12:00:10;;;;;;;;;18.75;17.25;;;;;20.96;57.47;100985.09;4942576;28;45403;-51